Aviation Digital Data Service (ADDS)

Output produced by METARs form (1802 UTC 21 September 2019)
found at http://aviationweather.gov/metar/data/
 
KLFK 211753Z AUTO 16010G17KT 110V180 10SM FEW034 FEW050 SCT065 31/22 A3011 RMK AO2 SLP191 T03060222 10306 20222 58007
KLFK 211734Z 2118/2218 14008KT P6SM BKN045 
     FM220100 13004KT P6SM SKC 
     FM220900 13005KT P6SM BKN012 
     FM221200 13005KT P6SM BKN007 
     FM221500 16009KT P6SM BKN016